Terminal Aerodrome Forecast
Issued by NWS

Home | Current Version | Previous Version | Text Only | Print | Product List | Glossary On
Versions: 1 2 3 4 5 6 7 8 9 10 11 12 13 14 15 16 17 18 19 20 21 22 23 24 25 26 27 28 29 30 31 32 33 34
000
FTUS45 KTFX 200544 RRC
TAFLWT
TAF
KLWT 200544Z 2006/2106 VRB04KT P6SM SCT040 BKN070
     FM200800 VRB05KT P6SM VCSH SCT040 BKN060
      TEMPO 2008/2011 6SM -SHRASN BR SCT020 BKN040
     FM201200 28005KT P6SM VCSH SCT030 BKN050
     FM201500 VRB04KT P6SM SCT060 BKN120=

USA.gov is the U.S. government's official web portal to all federal, state and local government web resources and services.